Forum Crazy Orc - Centre de statistiques

Statistiques générales

Total des membres:
966
Total des messages:
96 377
Total des sujets:
4 001
Total des catégories:
4
Membres en ligne:
94
Connexions simultanées:
808 - 21 janvier 2020 à 20:55:59
En ligne aujourd'hui:
126
Total des pages vues:
32 121 210
Moyenne des inscriptions par jour:
0,25
Moyenne des messages par jour:
25,05
Moyenne des sujets par jour:
1,11
Total des sections:
40
Dernier membre:
Safwane
Moyenne d'utilisateurs connectés par jour:
46,90
Ratio hommes/femmes:
7.1:1
Pages vues en moyenne par jour:
5 740,03

Top lanceurs de sujets

nunch
600
ManuDevil
287
Morithil
271
GroumpH
246
Scratchy
132
MAO
110
LeDupontesque
105
jules
99
snake
92
CCCP
85

Temps de connexion cumulé

Mandy
133j 19h 59m
GroumpH
112j 9h 9m
CCCP
85j 22h 35m
Nukeflow
73j 8h 19m
ManuDevil
67j 7h 55m
Felipe
61j 12h 19m
dao
56j 17h 58m
nunch
49j 46m
Rh
42j 23h 32m
Patate
41j 21h 15m

Historique du forum (basé sur l'heure interne du forum)

Résumé annuel Nouveaux sujets Nouveaux messages Nouveaux membres Connexions simultanées Pages vues
* 2022 102 605 54 130 1 867 477
Juillet 2022 0 3 1 130 19 725
Juin 2022 14 76 4 62 333 112
Mai 2022 16 118 8 91 339 244
Avril 2022 18 133 12 61 254 691
Mars 2022 15 123 8 65 281 935
Février 2022 17 84 9 58 314 588
2022-02-01 1 3 0 44 7 006
2022-02-02 0 2 0 47 7 466
2022-02-03 3 6 1 43 9 692
2022-02-04 0 0 0 43 8 105
2022-02-05 1 4 1 43 5 673
2022-02-06 0 3 0 52 6 200
2022-02-07 0 0 1 42 6 001
2022-02-08 1 2 0 46 12 159
2022-02-09 1 5 2 39 14 039
2022-02-10 0 0 0 58 14 006
2022-02-11 0 1 1 40 11 616
2022-02-12 0 0 0 50 14 000
2022-02-13 0 1 0 47 6 670
2022-02-14 3 3 0 47 14 159
2022-02-15 0 4 0 45 22 511
2022-02-16 1 7 0 48 48 711
2022-02-17 0 2 1 39 7 849
2022-02-18 0 1 0 46 11 058
2022-02-19 0 3 0 56 12 386
2022-02-20 0 3 0 44 8 624
2022-02-21 0 4 0 53 7 136
2022-02-22 0 0 0 42 6 346
2022-02-23 0 1 0 44 8 801
2022-02-24 0 5 1 51 9 114
2022-02-25 1 5 0 50 10 835
2022-02-26 0 6 0 56 9 748
2022-02-27 1 2 1 46 7 591
2022-02-28 4 11 0 49 7 086
Janvier 2022 22 68 12 70 324 182
* 2021 129 756 53 338 4 376 522
Décembre 2021 8 37 0 129 661 064
2021-12-01 0 1 0 86 10 724
2021-12-02 0 6 0 91 7 815
2021-12-03 0 0 0 93 7 911
2021-12-04 0 5 0 92 10 027
2021-12-05 2 2 0 86 10 097
2021-12-06 0 0 0 129 7 479
2021-12-07 0 0 0 101 8 162
2021-12-08 0 2 0 42 6 778
2021-12-09 0 0 0 40 7 532
2021-12-10 4 6 0 55 7 151
2021-12-11 0 1 0 42 9 757
2021-12-12 0 0 0 53 12 585
2021-12-13 0 2 0 48 10 751
2021-12-14 0 0 0 40 13 058
2021-12-15 0 1 0 35 11 053
2021-12-16 0 3 0 50 9 613
2021-12-17 0 1 0 47 11 104
2021-12-18 0 0 0 42 9 597
2021-12-19 0 2 0 48 9 257
2021-12-20 2 2 0 45 10 553
2021-12-21 0 0 0 47 10 988
2021-12-22 0 0 0 44 14 554
2021-12-23 0 1 0 47 43 880
2021-12-24 0 1 0 46 49 317
2021-12-25 0 0 0 47 49 735
2021-12-26 0 0 0 44 48 100
2021-12-27 0 1 0 41 54 117
2021-12-28 0 0 0 37 47 893
2021-12-29 0 0 0 38 54 768
2021-12-30 0 0 0 38 48 213
2021-12-31 0 0 0 38 48 495
Novembre 2021 13 99 4 153 262 314
Octobre 2021 20 208 15 159 298 103
Septembre 2021 24 171 10 280 285 455
Août 2021 11 33 7 73 231 609
Juillet 2021 6 8 2 81 305 173
2021-07-01 0 0 0 75 10 036
2021-07-02 0 0 0 81 8 440
2021-07-03 0 0 0 67 13 230
2021-07-04 0 0 0 36 8 785
2021-07-05 0 0 0 40 9 194
2021-07-06 0 0 0 42 10 481
2021-07-07 0 0 0 39 7 665
2021-07-08 0 0 0 49 10 484
2021-07-09 0 0 0 50 10 282
2021-07-10 0 0 0 51 10 523
2021-07-11 0 0 0 50 8 246
2021-07-12 0 0 0 45 7 596
2021-07-13 0 0 0 35 7 852
2021-07-14 0 0 0 53 8 163
2021-07-15 0 0 0 38 9 082
2021-07-16 0 0 0 36 8 446
2021-07-17 0 0 1 39 9 669
2021-07-18 0 1 0 39 9 019
2021-07-19 0 0 0 43 11 040
2021-07-20 0 0 0 35 11 389
2021-07-21 0 0 0 40 7 890
2021-07-22 0 0 0 40 7 654
2021-07-23 0 0 0 35 8 792
2021-07-24 0 0 0 32 8 114
2021-07-25 0 0 0 33 6 522
2021-07-26 0 1 0 38 7 728
2021-07-27 0 0 0 35 9 299
2021-07-28 0 0 0 28 6 500
2021-07-29 0 0 0 35 36 222
2021-07-30 0 0 1 37 7 791
2021-07-31 6 6 0 32 9 039
Juin 2021 17 31 2 135 311 168
2021-06-01 6 7 0 65 11 550
2021-06-02 0 0 0 77 12 253
2021-06-03 0 1 0 103 12 092
2021-06-04 0 0 0 93 8 171
2021-06-05 0 0 0 104 7 555
2021-06-06 0 0 0 95 7 530
2021-06-07 0 0 0 79 8 779
2021-06-08 1 3 0 79 10 509
2021-06-09 0 1 0 90 8 325
2021-06-10 0 0 0 88 8 468
2021-06-11 0 0 0 93 9 960
2021-06-12 0 1 0 92 10 963
2021-06-13 1 1 1 86 7 407
2021-06-14 0 0 0 105 6 206
2021-06-15 0 0 0 82 32 410
2021-06-16 4 6 0 83 12 753
2021-06-17 0 0 0 96 11 769
2021-06-18 0 2 0 101 7 377
2021-06-19 0 1 0 135 12 899
2021-06-20 0 0 0 131 10 996
2021-06-21 3 4 1 131 11 219
2021-06-22 0 0 0 101 8 997
2021-06-23 0 1 0 93 7 594
2021-06-24 0 0 0 103 9 103
2021-06-25 0 0 0 80 9 706
2021-06-26 0 0 0 79 9 521
2021-06-27 0 0 0 84 11 194
2021-06-28 0 0 0 75 8 473
2021-06-29 2 2 0 83 8 668
2021-06-30 0 1 0 71 8 721
Mai 2021 3 31 4 268 597 777
Avril 2021 10 51 6 287 308 355
Mars 2021 7 24 1 308 444 900
Février 2021 5 29 2 338 223 056
Janvier 2021 5 34 0 322 447 548
* 2020 206 1 716 105 808 4 713 463
Décembre 2020 6 38 2 320 310 487
Novembre 2020 12 97 3 352 464 426
Octobre 2020 21 169 7 346 497 422
2020-10-01 4 11 1 121 13 231
2020-10-02 0 15 0 130 15 235
2020-10-03 0 0 1 112 12 703
2020-10-04 3 10 1 119 108 419
2020-10-05 3 15 1 92 60 488
2020-10-06 0 16 0 118 11 489
2020-10-07 1 8 1 121 10 905
2020-10-08 0 9 0 143 14 006
2020-10-09 0 2 0 97 9 716
2020-10-10 1 4 1 94 11 237
2020-10-11 0 2 0 88 10 226
2020-10-12 3 7 0 85 9 874
2020-10-13 1 9 1 89 12 163
2020-10-14 0 11 0 346 16 344
2020-10-15 0 4 0 86 10 037
2020-10-16 0 0 0 90 9 449
2020-10-17 0 0 0 91 10 244
2020-10-18 0 9 0 78 8 796
2020-10-19 1 3 0 75 7 818
2020-10-20 3 9 0 88 7 872
2020-10-21 0 5 0 85 8 220
2020-10-22 0 10 0 87 10 088
2020-10-23 0 2 0 104 13 389
2020-10-24 0 0 0 95 12 852
2020-10-25 0 2 0 96 11 374
2020-10-26 0 1 0 98 10 283
2020-10-27 1 2 0 105 7 650
2020-10-28 0 2 0 107 10 881
2020-10-29 0 0 0 112 13 782
2020-10-30 0 1 0 114 15 295
2020-10-31 0 0 0 111 13 356
Septembre 2020 30 356 15 133 325 183
Août 2020 16 147 7 163 471 897
Juillet 2020 16 77 2 100 345 760
2020-07-01 0 3 0 53 15 128
2020-07-02 0 0 0 50 14 023
2020-07-03 0 0 0 54 10 055
2020-07-04 0 1 0 54 7 181
2020-07-05 1 2 0 53 7 390
2020-07-06 2 4 0 53 12 535
2020-07-07 0 0 0 57 13 793
2020-07-08 1 3 1 56 12 452
2020-07-09 1 5 0 96 12 087
2020-07-10 0 5 0 98 12 988
2020-07-11 0 0 0 88 11 107
2020-07-12 0 2 0 83 8 142
2020-07-13 0 4 0 76 10 295
2020-07-14 1 2 0 78 11 064
2020-07-15 2 3 0 76 12 030
2020-07-16 1 13 0 84 10 150
2020-07-17 0 2 0 65 10 880
2020-07-18 0 1 0 68 11 217
2020-07-19 0 1 0 74 13 216
2020-07-20 1 6 1 100 12 998
2020-07-21 0 6 0 93 11 786
2020-07-22 3 6 0 73 9 832
2020-07-23 1 1 0 78 11 746
2020-07-24 0 1 0 90 11 406
2020-07-25 0 1 0 83 9 782
2020-07-26 0 0 0 93 11 234
2020-07-27 2 3 0 93 9 667
2020-07-28 0 0 0 98 10 158
2020-07-29 0 1 0 94 10 268
2020-07-30 0 1 0 93 11 155
2020-07-31 0 0 0 88 9 995
Juin 2020 17 60 5 127 452 817
Mai 2020 7 22 3 295 321 652
Avril 2020 10 47 1 189 300 030
Mars 2020 24 253 3 199 467 854
2020-03-01 0 7 0 104 10 346
2020-03-02 0 5 0 126 6 471
2020-03-03 3 17 1 107 4 913
2020-03-04 0 10 0 116 5 122
2020-03-05 1 12 0 143 8 779
2020-03-06 0 9 0 144 11 988
2020-03-07 0 2 0 123 11 124
2020-03-08 0 5 0 122 13 134
2020-03-09 0 10 0 117 13 459
2020-03-10 2 5 0 114 11 164
2020-03-11 0 4 0 105 8 274
2020-03-12 0 10 0 199 11 093
2020-03-13 0 9 0 186 12 284
2020-03-14 1 11 0 189 12 386
2020-03-15 1 12 1 189 11 665
2020-03-16 1 3 0 173 10 318
2020-03-17 0 8 0 116 9 643
2020-03-18 0 2 0 107 8 287
2020-03-19 0 4 0 105 10 639
2020-03-20 0 0 0 116 10 883
2020-03-21 0 4 0 114 10 354
2020-03-22 0 0 0 119 9 230
2020-03-23 3 9 0 112 6 679
2020-03-24 0 7 0 113 47 441
2020-03-25 0 10 0 107 140 101
2020-03-26 5 9 0 119 6 876
2020-03-27 1 6 0 154 6 818
2020-03-28 1 16 0 114 7 190
2020-03-29 2 20 0 105 6 840
2020-03-30 1 13 0 121 11 552
2020-03-31 2 14 1 117 12 801
Février 2020 18 171 9 323 281 798
Janvier 2020 29 279 48 808 474 137
* 2019 246 3 411 313 446 3 308 531
Décembre 2019 18 159 26 446 351 248
Novembre 2019 16 245 33 325 524 135
Octobre 2019 24 272 59 121 189 762
2019-10-01 2 8 1 94 6 155
2019-10-02 1 4 4 88 3 845
2019-10-03 3 9 1 96 3 683
2019-10-04 0 14 2 89 5 498
2019-10-05 0 1 0 84 20 461
2019-10-06 2 9 2 99 13 970
2019-10-07 0 6 0 89 7 494
2019-10-08 0 11 1 101 7 092
2019-10-09 0 11 3 109 4 391
2019-10-10 2 19 3 96 5 295
2019-10-11 1 30 1 99 5 265
2019-10-12 0 19 5 115 5 091
2019-10-13 0 4 1 121 6 720
2019-10-14 2 14 2 108 6 374
2019-10-15 1 7 2 105 5 930
2019-10-16 0 3 1 99 5 079
2019-10-17 0 8 1 103 5 643
2019-10-18 0 3 2 96 4 595
2019-10-19 6 27 3 92 3 558
2019-10-20 0 7 1 112 5 029
2019-10-21 1 8 2 109 4 212
2019-10-22 0 7 1 104 4 800
2019-10-23 0 2 1 109 4 102
2019-10-24 0 9 1 106 6 806
2019-10-25 1 6 3 108 5 045
2019-10-26 0 2 2 106 5 937
2019-10-27 0 3 1 104 5 538
2019-10-28 2 6 3 103 4 525
2019-10-29 0 0 5 100 5 133
2019-10-30 0 3 3 100 4 364
2019-10-31 0 12 1 110 8 132
Septembre 2019 25 386 54 141 376 708
Août 2019 22 257 31 122 225 760
Juillet 2019 24 281 62 149 190 301
Juin 2019 11 171 3 112 246 519
Mai 2019 23 311 10 167 218 891
Avril 2019 21 294 9 174 311 459
Mars 2019 22 372 16 142 344 146
Février 2019 18 288 4 110 142 132
Janvier 2019 22 375 6 113 187 470
* 2018 338 6 176 81 641 2 624 946
Décembre 2018 43 306 8 253 421 582
Novembre 2018 26 467 9 641 383 363
Octobre 2018 34 527 6 321 248 725
Septembre 2018 34 641 10 127 216 306
Août 2018 32 583 16 101 188 648
Juillet 2018 21 386 3 104 182 475
Juin 2018 31 442 3 110 213 303
Mai 2018 21 422 4 107 174 393
Avril 2018 25 564 5 104 159 849
Mars 2018 20 634 4 96 152 933
2018-03-01 0 7 0 20 8 226
2018-03-02 0 23 0 16 1 189
2018-03-03 0 28 0 19 1 566
2018-03-04 1 44 0 21 1 915
2018-03-05 0 11 0 17 1 328
2018-03-06 0 10 0 75 1 912
2018-03-07 1 21 0 89 4 461
2018-03-08 0 18 0 83 4 381
2018-03-09 0 14 0 94 4 761
2018-03-10 0 22 0 87 5 080
2018-03-11 1 24 0 90 6 619
2018-03-12 4 69 2 79 4 642
2018-03-13 2 36 1 88 5 239
2018-03-14 1 25 0 90 4 987
2018-03-15 2 9 0 81 4 572
2018-03-16 0 7 0 77 4 268
2018-03-17 0 9 0 81 4 271
2018-03-18 0 13 0 91 4 435
2018-03-19 2 12 0 79 4 301
2018-03-20 0 30 0 87 4 317
2018-03-21 0 7 0 86 4 027
2018-03-22 1 19 0 84 4 514
2018-03-23 0 14 0 91 4 486
2018-03-24 0 6 0 81 4 292
2018-03-25 0 11 0 78 4 516
2018-03-26 2 16 0 86 4 584
2018-03-27 0 7 0 80 4 375
2018-03-28 0 22 0 80 4 705
2018-03-29 0 27 0 79 4 483
2018-03-30 1 40 1 82 4 671
2018-03-31 2 33 0 96 25 810
Février 2018 25 631 7 93 121 912
Janvier 2018 26 573 6 94 161 457
* 2017 346 6 100 56 180 1 675 168
Décembre 2017 37 499 6 91 136 063
Novembre 2017 37 675 6 93 169 670
2017-11-01 3 9 0 77 4 022
2017-11-02 0 22 0 71 4 259
2017-11-03 0 11 0 82 4 272
2017-11-04 0 3 0 76 3 820
2017-11-05 3 29 2 77 4 573
2017-11-06 6 37 1 81 5 440
2017-11-07 0 24 0 74 2 841
2017-11-08 1 34 1 83 6 609
2017-11-09 0 19 0 79 3 795
2017-11-10 1 17 0 77 5 155
2017-11-11 2 32 0 75 4 737
2017-11-12 4 45 0 77 4 783
2017-11-13 1 20 1 77 4 342
2017-11-14 0 9 0 80 4 249
2017-11-15 0 14 0 77 3 973
2017-11-16 0 24 0 73 4 676
2017-11-17 1 21 0 75 4 258
2017-11-18 5 27 0 69 3 974
2017-11-19 0 24 0 79 4 936
2017-11-20 1 23 0 87 4 575
2017-11-21 0 5 0 83 5 092
2017-11-22 1 16 1 92 3 731
2017-11-23 2 24 0 86 5 187
2017-11-24 0 33 0 81 5 193
2017-11-25 0 13 0 79 4 469
2017-11-26 1 16 0 83 4 212
2017-11-27 2 54 0 80 4 643
2017-11-28 2 14 0 93 13 745
2017-11-29 1 23 0 89 28 566
2017-11-30 0 33 0 93 5 543
Octobre 2017 15 426 2 93 151 449
2017-10-01 1 16 0 71 4 799
2017-10-02 0 9 0 83 4 529
2017-10-03 0 8 0 80 5 172
2017-10-04 0 7 0 86 4 363
2017-10-05 0 8 0 89 5 192
2017-10-06 0 6 0 85 4 811
2017-10-07 0 7 0 78 4 810
2017-10-08 8 24 0 81 5 378
2017-10-09 0 17 0 93 4 986
2017-10-10 1 21 0 74 4 632
2017-10-11 1 25 0 67 4 328
2017-10-12 0 8 1 76 4 661
2017-10-13 0 13 0 67 3 429
2017-10-14 0 14 0 67 24 056
2017-10-15 1 17 0 67 3 713
2017-10-16 0 18 0 72 3 995
2017-10-17 2 7 0 74 3 028
2017-10-18 0 19 0 70 3 977
2017-10-19 0 20 0 71 3 742
2017-10-20 0 23 0 70 4 235
2017-10-21 0 9 1 69 3 775
2017-10-22 0 12 0 74 3 882
2017-10-23 1 15 0 72 3 999
2017-10-24 0 18 0 83 3 576
2017-10-25 0 13 0 78 4 578
2017-10-26 0 24 0 83 4 418
2017-10-27 0 16 0 83 4 128
2017-10-28 0 16 0 79 3 950
2017-10-29 0 8 0 79 4 420
2017-10-30 0 7 0 76 3 927
2017-10-31 0 1 0 73 2 960
Septembre 2017 28 548 5 94 135 543
Août 2017 29 384 6 99 148 097
Juillet 2017 25 490 5 87 176 472
2017-07-01 0 15 0 70 4 062
2017-07-02 0 3 1 65 3 539
2017-07-03 1 23 1 62 3 836
2017-07-04 1 26 0 72 3 952
2017-07-05 1 10 0 61 4 350
2017-07-06 1 29 0 87 4 569
2017-07-07 0 20 1 77 4 031
2017-07-08 1 22 0 69 5 874
2017-07-09 0 19 0 69 7 487
2017-07-10 0 17 0 72 5 879
2017-07-11 1 4 0 67 7 492
2017-07-12 0 5 0 71 6 813
2017-07-13 1 4 0 79 25 553
2017-07-14 0 5 0 87 5 690
2017-07-15 0 5 0 72 4 170
2017-07-16 2 18 0 78 4 326
2017-07-17 5 25 0 73 4 689
2017-07-18 0 17 1 76 4 440
2017-07-19 1 19 0 83 3 965
2017-07-20 0 12 0 76 4 047
2017-07-21 1 19 1 75 5 666
2017-07-22 1 10 0 72 4 430
2017-07-23 2 22 0 77 5 427
2017-07-24 0 21 0 83 6 448
2017-07-25 1 16 0 69 4 956
2017-07-26 3 31 0 84 5 953
2017-07-27 0 21 0 75 5 107
2017-07-28 0 12 0 70 6 063
2017-07-29 0 18 0 72 5 667
2017-07-30 1 9 0 67 4 294
2017-07-31 1 13 0 68 3 697
Juin 2017 33 603 4 89 156 248
Mai 2017 26 470 2 99 181 189
Avril 2017 31 490 5 180 139 896
2017-04-01 0 14 0 48 4 179
2017-04-02 1 21 0 41 11 405
2017-04-03 2 14 0 44 1 551
2017-04-04 0 6 0 22 930
2017-04-05 2 13 0 19 1 221
2017-04-06 0 20 0 20 4 204
2017-04-07 0 9 0 19 2 345
2017-04-08 1 18 0 22 2 529
2017-04-09 1 5 1 17 1 209
2017-04-10 3 36 1 44 2 839
2017-04-11 2 22 0 74 4 607
2017-04-12 2 19 0 62 5 808
2017-04-13 0 31 0 64 3 713
2017-04-14 2 35 0 59 3 257
2017-04-15 0 8 0 68 3 136
2017-04-16 0 12 0 63 3 438
2017-04-17 2 22 0 58 3 762
2017-04-18 2 30 0 81 5 391
2017-04-19 1 23 1 122 6 928
2017-04-20 1 8 0 68 5 309
2017-04-21 0 14 0 51 3 988
2017-04-22 0 2 0 47 4 082
2017-04-23 2 18 0 51 6 943
2017-04-24 1 15 1 51 4 833
2017-04-25 2 26 1 180 6 646
2017-04-26 3 19 0 83 8 145
2017-04-27 0 2 0 68 8 631
2017-04-28 0 2 0 61 4 684
2017-04-29 1 18 0 58 6 307
2017-04-30 0 8 0 54 7 876
Mars 2017 27 432 3 119 90 981
Février 2017 31 587 7 87 74 924
2017-02-01 1 14 0 55 2 090
2017-02-02 0 10 0 26 2 549
2017-02-03 2 38 0 74 3 460
2017-02-04 0 3 0 75 4 033
2017-02-05 4 34 1 66 4 596
2017-02-06 3 76 1 73 4 948
2017-02-07 1 30 0 76 4 581
2017-02-08 0 19 0 77 4 379
2017-02-09 1 26 2 70 4 735
2017-02-10 1 27 0 70 3 647
2017-02-11 0 10 0 87 3 878
2017-02-12 2 13 0 82 3 838
2017-02-13 2 70 0 81 4 357
2017-02-14 4 31 0 16 1 711
2017-02-15 2 25 0 24 3 776
2017-02-16 2 20 1 16 3 155
2017-02-17 0 15 0 17 2 432
2017-02-18 1 10 0 16 1 365
2017-02-19 0 13 1 15 1 380
2017-02-20 1 27 1 25 1 662
2017-02-21 2 8 0 17 1 136
2017-02-22 1 12 0 19 946
2017-02-23 0 20 0 25 1 535
2017-02-24 1 10 0 17 879
2017-02-25 0 8 0 20 940
2017-02-26 0 10 0 18 1 219
2017-02-27 0 5 0 15 954
2017-02-28 0 3 0 13 743
Janvier 2017 27 496 5 80 114 636
* 2016 389 7 721 79 245 2 075 605
Décembre 2016 34 533 2 170 118 206
Novembre 2016 34 586 6 245 122 991
2016-11-01 0 34 0 79 3 768
2016-11-02 1 38 0 64 4 674
2016-11-03 0 17 0 50 3 172
2016-11-04 3 43 1 52 3 641
2016-11-05 0 23 1 54 4 697
2016-11-06 2 19 0 50 3 669
2016-11-07 1 24 0 81 3 628
2016-11-08 1 15 0 83 5 212
2016-11-09 0 11 1 52 2 529
2016-11-10 0 16 0 33 3 252
2016-11-11 1 17 0 66 3 953
2016-11-12 3 25 1 66 4 075
2016-11-13 1 4 0 62 4 031
2016-11-14 2 21 0 55 3 434
2016-11-15 0 20 0 245 4 465
2016-11-16 3 26 1 70 4 516
2016-11-17 0 26 0 64 4 350
2016-11-18 1 18 0 70 3 943
2016-11-19 0 16 0 68 4 222
2016-11-20 3 21 0 65 3 980
2016-11-21 0 14 0 60 3 884
2016-11-22 0 15 0 48 3 315
2016-11-23 1 14 0 86 4 910
2016-11-24 1 13 0 64 4 600
2016-11-25 4 30 0 68 4 613
2016-11-26 1 12 0 66 5 051
2016-11-27 3 14 1 59 4 515
2016-11-28 1 6 0 59 3 726
2016-11-29 1 29 0 61 5 179
2016-11-30 0 5 0 75 3 987
Octobre 2016 43 726 7 191 160 217
Septembre 2016 26 657 9 85 157 449
Août 2016 31 721 9 114 169 873
Juillet 2016 19 513 3 58 166 690
2016-07-01 0 12 0 45 7 913
2016-07-02 1 14 0 53 5 460
2016-07-03 0 12 0 43 5 640
2016-07-04 0 21 0 51 5 125
2016-07-05 0 19 0 53 19 299
2016-07-06 1 26 0 47 4 798
2016-07-07 1 14 1 45 5 226
2016-07-08 0 17 0 29 4 376
2016-07-09 2 9 1 33 3 581
2016-07-10 0 17 0 30 3 953
2016-07-11 0 19 0 33 3 994
2016-07-12 0 6 0 34 4 003
2016-07-13 0 6 0 29 3 703
2016-07-14 0 9 0 36 3 393
2016-07-15 0 12 0 46 3 985
2016-07-16 0 8 0 49 3 862
2016-07-17 1 15 0 46 6 224
2016-07-18 3 49 0 48 9 490
2016-07-19 5 19 0 58 12 133
2016-07-20 1 27 0 53 6 421
2016-07-21 0 15 0 44 4 051
2016-07-22 1 24 0 35 2 980
2016-07-23 0 9 0 46 2 786
2016-07-24 0 5 0 50 3 313
2016-07-25 0 18 0 48 3 778
2016-07-26 1 16 0 49 3 234
2016-07-27 1 13 1 45 3 378
2016-07-28 0 28 0 42 4 140
2016-07-29 0 14 0 54 4 296
2016-07-30 0 16 0 49 6 668
2016-07-31 1 24 0 56 5 487
Juin 2016 30 565 5 53 211 715
Mai 2016 40 1 116 8 94 166 514
Avril 2016 27 529 7 65 155 208
Mars 2016 35 513 11 88 224 056
Février 2016 35 640 4 96 192 454
2016-02-01 1 22 0 74 8 459
2016-02-02 0 20 0 87 6 602
2016-02-03 2 37 0 76 17 946
2016-02-04 0 19 0 64 5 160
2016-02-05 1 28 0 73 4 553
2016-02-06 2 27 0 78 4 715
2016-02-07 4 24 0 69 4 878
2016-02-08 0 21 0 22 2 514
2016-02-09 0 10 0 72 6 304
2016-02-10 1 10 0 90 4 785
2016-02-11 1 27 0 77 5 427
2016-02-12 0 34 0 82 5 486
2016-02-13 1 28 1 77 6 932
2016-02-14 1 24 0 82 7 091
2016-02-15 3 42 1 81 5 791
2016-02-16 1 25 1 75 6 305
2016-02-17 2 35 0 95 5 664
2016-02-18 2 36 0 76 5 744
2016-02-19 1 24 0 76 5 288
2016-02-20 4 21 0 96 5 390
2016-02-21 2 14 1 70 5 007
2016-02-22 1 24 0 84 5 259
2016-02-23 2 21 0 78 6 312
2016-02-24 0 11 0 80 7 832
2016-02-25 1 5 0 79 5 226
2016-02-26 0 10 0 70 5 018
2016-02-27 2 21 0 75 5 289
2016-02-28 0 9 0 83 12 718
2016-02-29 0 11 0 72 14 759
Janvier 2016 35 622 8 95 230 232
* 2015 373 6 684 79 100 1 549 803
Décembre 2015 28 499 7 68 140 303
Novembre 2015 40 724 5 35 146 607
Octobre 2015 32 760 10 84 227 528
Septembre 2015 40 948 13 100 169 012
Août 2015 36 566 12 61 119 954
Juillet 2015 29 462 7 31 89 666
2015-07-01 0 4 0 13 1 257
2015-07-02 1 2 0 14 1 570
2015-07-03 3 24 0 19 2 798
2015-07-04 0 8 0 18 2 278
2015-07-05 0 18 2 17 3 771
2015-07-06 3 52 0 23 5 662
2015-07-07 0 9 0 19 4 584
2015-07-08 0 10 0 18 3 475
2015-07-09 2 21 0 16 2 090
2015-07-10 0 7 0 18 2 685
2015-07-11 0 9 0 16 2 150
2015-07-12 0 17 0 21 2 665
2015-07-13 0 12 0 21 3 531
2015-07-14 1 11 0 19 5 009
2015-07-15 2 17 0 19 5 094
2015-07-16 1 20 0 18 4 130
2015-07-17 0 11 0 18 3 208
2015-07-18 2 15 1 21 3 167
2015-07-19 0 22 0 16 2 520
2015-07-20 0 13 0 16 2 374
2015-07-21 0 8 1 18 2 140
2015-07-22 1 19 0 14 2 340
2015-07-23 5 18 1 19 2 644
2015-07-24 2 29 1 19 2 376
2015-07-25 1 26 0 20 2 151
2015-07-26 1 15 0 31 2 342
2015-07-27 2 8 1 17 1 660
2015-07-28 0 16 0 14 2 104
2015-07-29 0 8 0 13 2 648
2015-07-30 2 6 0 17 2 245
2015-07-31 0 7 0 15 2 998
Juin 2015 24 453 5 30 112 317
2015-06-01 1 21 1 25 4 795
2015-06-02 0 13 0 13 1 648
2015-06-03 1 16 1 14 4 304
2015-06-04 1 25 0 14 3 105
2015-06-05 0 20 0 15 1 807
2015-06-06 1 21 0 17 2 532
2015-06-07 4 18 0 16 1 899
2015-06-08 0 12 0 14 2 343
2015-06-09 1 10 0 18 2 371
2015-06-10 0 10 0 20 7 902
2015-06-11 1 19 0 11 4 495
2015-06-12 0 7 0 13 1 558
2015-06-13 1 6 0 13 1 791
2015-06-14 0 11 0 14 2 048
2015-06-15 3 13 0 19 1 997
2015-06-16 0 10 0 18 1 599
2015-06-17 1 17 0 17 2 018
2015-06-18 0 13 0 12 1 641
2015-06-19 0 7 0 15 1 876
2015-06-20 0 9 0 12 1 521
2015-06-21 0 10 0 15 1 695
2015-06-22 1 19 0 16 2 896
2015-06-23 1 23 1 22 11 490
2015-06-24 2 23 0 30 13 135
2015-06-25 0 11 0 18 9 448
2015-06-26 3 23 0 20 11 127
2015-06-27 0 7 0 17 2 548
2015-06-28 0 5 0 13 2 651
2015-06-29 2 29 2 18 2 252
2015-06-30 0 25 0 19 1 825
Mai 2015 30 390 2 24 73 874
Avril 2015 29 408 4 25 95 371
2015-04-01 1 15 0 20 2 794
2015-04-02 1 21 0 16 2 834
2015-04-03 0 14 0 17 2 508
2015-04-04 0 8 0 15 1 598
2015-04-05 0 4 0 16 4 225
2015-04-06 1 5 0 22 4 037
2015-04-07 1 8 0 17 3 300
2015-04-08 0 16 0 22 2 846
2015-04-09 0 3 0 18 3 300
2015-04-10 2 18 0 22 3 304
2015-04-11 1 19 1 18 3 102
2015-04-12 0 7 1 12 2 663
2015-04-13 1 10 0 14 3 621
2015-04-14 0 16 0 25 2 946
2015-04-15 0 5 0 17 2 800
2015-04-16 0 3 0 19 3 815
2015-04-17 1 9 0 16 3 313
2015-04-18 0 11 0 16 3 035
2015-04-19 0 5 0 16 4 184
2015-04-20 1 8 0 16 2 818
2015-04-21 0 1 0 18 2 616
2015-04-22 1 13 0 18 2 909
2015-04-23 0 19 0 24 4 246
2015-04-24 0 18 0 18 3 149
2015-04-25 8 32 1 17 3 211
2015-04-26 4 35 0 20 3 250
2015-04-27 3 35 0 18 3 609
2015-04-28 0 6 0 13 3 318
2015-04-29 2 23 1 16 3 839
2015-04-30 1 21 0 16 2 181
Mars 2015 38 550 7 37 130 116
Février 2015 15 434 2 24 123 854
2015-02-01 1 23 0 15 2 764
2015-02-02 4 16 0 19 3 123
2015-02-03 0 24 0 19 3 982
2015-02-04 0 20 0 20 13 958
2015-02-05 0 8 0 15 4 445
2015-02-06 2 15 0 17 4 092
2015-02-07 0 11 0 17 3 923
2015-02-08 0 16 0 15 2 919
2015-02-09 0 47 0 18 3 036
2015-02-10 0 16 0 17 3 314
2015-02-11 0 4 0 15 3 212
2015-02-12 0 13 0 18 3 091
2015-02-13 0 24 0 15 3 570
2015-02-14 2 24 1 16 3 435
2015-02-15 4 38 0 16 3 932
2015-02-16 1 26 0 15 4 563
2015-02-17 0 6 0 15 2 297
2015-02-18 0 2 0 12 2 335
2015-02-19 0 7 0 17 2 509
2015-02-20 0 13 0 14 2 356
2015-02-21 0 7 0 22 4 319
2015-02-22 0 9 0 21 4 162
2015-02-23 0 19 0 19 3 587
2015-02-24 0 5 0 18 2 084
2015-02-25 0 10 0 16 3 096
2015-02-26 0 15 0 21 10 939
2015-02-27 0 2 0 24 9 803
2015-02-28 1 14 1 22 9 008
Janvier 2015 32 490 5 44 121 201
* 2014 428 7 364 58 58 2 478 164
Décembre 2014 24 360 4 33 191 610
Novembre 2014 37 572 7 46 525 858
2014-11-01 0 10 0 39 31 767
2014-11-02 4 28 1 38 30 905
2014-11-03 2 15 1 46 35 171
2014-11-04 0 10 0 45 33 110
2014-11-05 1 19 0 42 33 257
2014-11-06 1 32 0 37 27 962
2014-11-07 3 33 0 40 33 652
2014-11-08 2 9 0 45 28 231
2014-11-09 1 24 0 32 22 476
2014-11-10 0 24 0 45 25 456
2014-11-11 0 29 0 35 24 461
2014-11-12 0 13 0 34 21 316
2014-11-13 0 10 0 27 13 857
2014-11-14 0 11 0 28 11 982
2014-11-15 2 21 0 34 10 235
2014-11-16 1 26 0 27 8 102
2014-11-17 2 16 0 25 10 338
2014-11-18 1 10 0 25 9 298
2014-11-19 0 8 0 25 10 140
2014-11-20 4 18 0 24 9 332
2014-11-21 0 12 1 26 11 050
2014-11-22 0 14 1 26 8 358
2014-11-23 2 15 1 22 6 229
2014-11-24 4 35 0 26 9 487
2014-11-25 0 14 0 30 14 490
2014-11-26 3 20 1 25 10 319
2014-11-27 0 31 0 28 9 632
2014-11-28 2 22 0 24 7 672
2014-11-29 2 27 1 25 9 524
2014-11-30 0 16 0 22 8 049
Octobre 2014 45 928 8 58 364 915
Septembre 2014 24 549 8 32 162 413
Août 2014 17 251 4 27 191 624
Juillet 2014 25 369 3 30 236 312
Juin 2014 29 602 3 32 220 918
Mai 2014 34 842 6 29 157 174
Avril 2014 45 662 1 25 104 486
2014-04-01 3 29 0 14 4 594
2014-04-02 3 19 0 19 3 032
2014-04-03 2 14 0 13 2 744
2014-04-04 0 12 0 14 3 214
2014-04-05 0 5 0 17 3 260
2014-04-06 0 6 0 18 3 097
2014-04-07 1 13 0 20 2 585
2014-04-08 0 11 0 23 3 197
2014-04-09 1 11 0 18 3 647
2014-04-10 0 8 1 17 3 928
2014-04-11 0 9 0 20 2 170
2014-04-12 1 13 0 24 2 967
2014-04-13 0 13 0 21 3 698
2014-04-14 1 8 0 23 3 494
2014-04-15 4 15 0 22 6 980
2014-04-16 1 25 0 19 4 022
2014-04-17 0 17 0 15 6 056
2014-04-18 3 22 0 17 2 815
2014-04-19 0 16 0 17 2 641
2014-04-20 1 11 0 18 4 085
2014-04-21 2 23 0 22 3 723
2014-04-22 0 30 0 22 4 837
2014-04-23 0 37 0 24 3 303
2014-04-24 3 36 0 25 3 341
2014-04-25 8 65 0 18 2 930
2014-04-26 3 46 0 19 2 659
2014-04-27 5 45 0 19 3 483
2014-04-28 0 19 0 19 2 858
2014-04-29 2 46 0 14 2 266
2014-04-30 1 38 0 14 2 860
Mars 2014 32 595 4 26 120 439
Février 2014 24 660 5 28 102 996
Janvier 2014 92 974 5 33 99 419
* 2013 408 8 887 76 89 1 597 727
Décembre 2013 36 785 2 79 132 305
Novembre 2013 36 751 8 29 141 119
2013-11-01 4 33 2 29 4 258
2013-11-02 1 10 0 18 3 364
2013-11-03 0 18 0 17 4 043
2013-11-04 0 16 0 16 2 787
2013-11-05 0 12 0 19 4 349
2013-11-06 0 14 0 25 12 178
2013-11-07 0 30 0 23 5 858
2013-11-08 3 22 0 16 3 999
2013-11-09 0 10 0 19 4 800
2013-11-10 1 16 0 17 4 744
2013-11-11 2 14 0 13 3 463
2013-11-12 1 32 0 14 3 326
2013-11-13 0 12 0 17 2 912
2013-11-14 2 27 0 16 2 991
2013-11-15 0 17 0 15 2 883
2013-11-16 2 18 0 25 3 279
2013-11-17 0 13 0 28 5 091
2013-11-18 2 20 1 20 3 269
2013-11-19 3 25 1 16 4 107
2013-11-20 5 53 0 25 4 556
2013-11-21 0 33 0 26 4 719
2013-11-22 2 35 1 24 5 798
2013-11-23 0 39 0 21 13 713
2013-11-24 1 32 0 29 8 700
2013-11-25 0 14 0 27 3 856
2013-11-26 2 46 0 19 3 287
2013-11-27 1 46 0 19 4 243
2013-11-28 2 37 2 18 3 613
2013-11-29 2 30 1 17 3 673
2013-11-30 0 27 0 18 3 260
Octobre 2013 37 683 10 26 116 570
Septembre 2013 33 723 15 29 160 779
Août 2013 20 356 4 30 113 960
2013-08-01 0 1 0 17 6 165
2013-08-02 2 10 1 30 3 363
2013-08-03 0 4 0 18 3 801
2013-08-04 1 6 0 15 4 126
2013-08-05 2 13 0 22 3 858
2013-08-06 0 8 0 17 5 385
2013-08-07 0 5 0 17 3 665
2013-08-08 0 10 0 18 3 057
2013-08-09 0 6 0 18 4 374
2013-08-10 1 2 0 16 4 563
2013-08-11 0 9 0 17 4 114
2013-08-12 0 1 0 20 4 489
2013-08-13 1 17 0 19 4 829
2013-08-14 0 7 0 15 2 333
2013-08-15 0 2 0 14 2 977
2013-08-16 0 1 0 15 4 833
2013-08-17 0 2 0 13 3 056
2013-08-18 0 7 0 13 2 784
2013-08-19 1 3 0 12 3 124
2013-08-20 1 8 0 13 2 097
2013-08-21 0 10 0 14 2 180
2013-08-22 0 9 0 15 2 515
2013-08-23 0 13 1 23 3 032
2013-08-24 2 21 0 14 2 563
2013-08-25 1 8 0 14 2 604
2013-08-26 1 13 0 14 1 978
2013-08-27 1 22 0 18 2 519
2013-08-28 0 30 0 14 3 594
2013-08-29 0 26 1 17 2 491
2013-08-30 2 41 1 20 8 436
2013-08-31 4 41 0 22 5 055
Juillet 2013 21 331 2 24 120 164
Juin 2013 40 731 5 34 119 512
2013-06-01 1 13 0 17 3 096
2013-06-02 1 17 0 18 3 028
2013-06-03 1 22 0 16 3 372
2013-06-04 1 19 0 19 3 324
2013-06-05 0 14 0 23 4 819
2013-06-06 0 17 1 19 4 481
2013-06-07 1 13 0 18 4 526
2013-06-08 1 3 0 15 2 042
2013-06-09 2 11 1 15 4 963
2013-06-10 3 33 0 18 4 947
2013-06-11 4 51 0 17 4 344
2013-06-12 2 18 0 16 4 209
2013-06-13 3 41 0 19 3 396
2013-06-14 0 37 0 17 3 142
2013-06-15 1 14 0 15 3 196
2013-06-16 3 39 0 19 3 462
2013-06-17 2 58 1 21 4 811
2013-06-18 0 20 0 18 3 636
2013-06-19 3 40 0 17 3 088
2013-06-20 0 26 0 15 5 656
2013-06-21 0 27 0 19 4 727
2013-06-22 4 27 0 16 3 816
2013-06-23 0 36 0 16 4 764
2013-06-24 1 33 1 34 5 519
2013-06-25 0 21 1 18 3 850
2013-06-26 1 15 0 22 3 883
2013-06-27 2 30 0 21 3 739
2013-06-28 2 18 0 17 4 453
2013-06-29 1 12 0 17 3 440
2013-06-30 0 6 0 21 3 783
Mai 2013 34 881 3 47 157 484
Avril 2013 38 799 8 33 124 279
2013-04-01 4 20 0 24 3 359
2013-04-02 1 47 0 21 4 467
2013-04-03 0 45 0 23 3 233
2013-04-04 0 33 0 16 2 834
2013-04-05 0 17 0 19 3 016
2013-04-06 2 17 1 21 4 302
2013-04-07 1 58 0 33 4 201
2013-04-08 0 22 0 17 4 107
2013-04-09 3 42 0 18 3 737
2013-04-10 1 19 0 16 3 054
2013-04-11 2 20 0 18 2 700
2013-04-12 2 22 1 17 2 910
2013-04-13 0 8 2 17 2 288
2013-04-14 0 22 0 16 2 273
2013-04-15 0 18 0 20 2 553
2013-04-16 2 35 2 23 4 161
2013-04-17 3 14 0 15 2 830
2013-04-18 0 20 0 21 2 765
2013-04-19 0 13 0 22 3 929
2013-04-20 1 9 0 17 4 630
2013-04-21 3 33 0 15 4 446
2013-04-22 5 26 1 18 5 097
2013-04-23 1 41 0 26 5 957
2013-04-24 2 35 0 21 7 277
2013-04-25 1 26 0 22 3 866
2013-04-26 1 35 0 22 3 466
2013-04-27 1 41 1 19 7 601
2013-04-28 1 28 0 26 7 931
2013-04-29 1 26 0 19 6 992
2013-04-30 0 7 0 18 4 297
Mars 2013 40 1 111 9 62 147 762
2013-03-01 0 12 0 51 6 549
2013-03-02 1 13 0 37 4 543
2013-03-03 2 43 0 37 3 584
2013-03-04 0 47 0 48 5 492
2013-03-05 1 28 2 43 10 235
2013-03-06 0 23 1 23 5 242
2013-03-07 1 25 0 17 2 873
2013-03-08 2 34 0 22 3 808
2013-03-09 2 35 1 15 3 643
2013-03-10 4 41 0 43 3 470
2013-03-11 1 26 0 30 4 367
2013-03-12 0 34 1 21 4 299
2013-03-13 3 59 0 24 4 126
2013-03-14 3 38 0 18 4 289
2013-03-15 1 63 1 18 4 539
2013-03-16 0 26 0 16 3 540
2013-03-17 1 34 0 18 3 678
2013-03-18 1 70 0 62 5 572
2013-03-19 4 21 1 27 3 636
2013-03-20 1 43 1 33 6 483
2013-03-21 2 43 0 23 5 533
2013-03-22 0 29 0 24 4 112
2013-03-23 3 17 0 20 3 638
2013-03-24 3 68 0 23 4 766
2013-03-25 0 41 1 22 8 947
2013-03-26 3 50 0 20 6 590
2013-03-27 0 39 0 27 3 966
2013-03-28 0 37 0 24 5 372
2013-03-29 0 42 0 19 5 271
2013-03-30 1 17 0 14 2 181
2013-03-31 0 13 0 18 3 418
Février 2013 32 838 5 79 125 299
2013-02-01 2 20 1 38 4 770
2013-02-02 0 12 0 40 3 753
2013-02-03 3 19 0 33 3 610
2013-02-04 0 34 0 41 4 908
2013-02-05 2 22 0 22 4 094
2013-02-06 0 19 0 20 3 240
2013-02-07 0 22 1 79 4 987
2013-02-08 0 26 0 16 2 458
2013-02-09 0 34 0 14 2 084
2013-02-10 0 16 0 16 2 327
2013-02-11 3 27 0 61 4 020
2013-02-12 5 48 1 47 4 064
2013-02-13 1 79 0 37 3 898
2013-02-14 3 74 1 34 3 452
2013-02-15 1 45 0 31 3 283
2013-02-16 1 31 1 37 3 089
2013-02-17 3 30 0 45 3 996
2013-02-18 1 42 0 56 3 300
2013-02-19 1 43 0 52 5 836
2013-02-20 0 24 0 43 5 131
2013-02-21 0 33 0 52 5 984
2013-02-22 1 20 0 44 4 402
2013-02-23 0 17 0 49 3 514
2013-02-24 1 18 0 20 5 210
2013-02-25 2 21 0 23 9 279
2013-02-26 0 18 0 35 9 894
2013-02-27 2 20 0 40 5 096
2013-02-28 0 24 0 52 5 620
Janvier 2013 41 898 5 89 138 494
* 2012 446 10 690 67 157 1 274 957
Décembre 2012 57 1 411 4 45 150 137
Novembre 2012 46 1 137 8 25 112 399
Octobre 2012 45 1 068 7 25 80 970
Septembre 2012 37 876 11 38 107 023
2012-09-01 0 8 1 16 2 575
2012-09-02 5 43 0 17 3 826
2012-09-03 2 46 0 23 3 659
2012-09-04 1 28 1 17 3 491
2012-09-05 1 45 0 20 3 793
2012-09-06 1 48 0 15 3 882
2012-09-07 0 23 0 17 3 089
2012-09-08 2 35 0 34 3 530
2012-09-09 2 20 1 15 3 371
2012-09-10 4 46 1 27 3 558
2012-09-11 3 41 1 15 3 139
2012-09-12 1 57 0 35 4 503
2012-09-13 0 15 0 38 4 800
2012-09-14 0 18 0 19 3 751
2012-09-15 0 4 0 25 3 135
2012-09-16 2 31 0 21 3 471
2012-09-17 1 51 0 20 3 662
2012-09-18 1 37 2 21 3 924
2012-09-19 0 20 0 22 4 623
2012-09-20 0 24 1 20 4 039
2012-09-21 1 31 1 23 4 071
2012-09-22 0 14 0 23 3 551
2012-09-23 1 14 0 21 3 462
2012-09-24 2 48 1 22 4 769
2012-09-25 4 39 1 23 3 691
2012-09-26 0 22 0 20 3 237
2012-09-27 0 21 0 25 3 229
2012-09-28 0 13 0 16 2 068
2012-09-29 2 16 0 15 1 970
2012-09-30 1 18 0 14 3 154
Août 2012 30 595 5 41 95 032
Juillet 2012 24 563 2 157 78 638
2012-07-01 2 33 0 20 3 383
2012-07-02 0 39 0 16 3 176
2012-07-03 1 42 0 21 2 769
2012-07-04 0 21 0 18 2 427
2012-07-05 0 28 0 19 2 191
2012-07-06 0 29 0 15 2 402
2012-07-07 2 10 0 25 4 165
2012-07-08 0 13 1 17 1 741
2012-07-09 2 18 0 14 3 585
2012-07-10 2 24 0 14 2 317
2012-07-11 0 39 0 22 3 204
2012-07-12 0 32 0 14 1 963
2012-07-13 1 28 0 16 1 977
2012-07-14 0 17 0 16 1 834
2012-07-15 3 22 0 30 3 446
2012-07-16 1 11 0 26 3 044
2012-07-17 0 5 0 13 1 616
2012-07-18 2 14 0 15 1 754
2012-07-19 0 21 0 13 2 427
2012-07-20 0 15 0 18 1 824
2012-07-21 0 10 0 10 1 292
2012-07-22 0 6 0 18 1 434
2012-07-23 1 7 0 17 1 873
2012-07-24 2 8 0 157 7 112
2012-07-25 2 13 1 13 1 667
2012-07-26 1 6 0 14 1 478
2012-07-27 1 14 0 16 2 610
2012-07-28 0 6 0 17 2 026
2012-07-29 0 11 0 16 2 266
2012-07-30 1 11 0 15 2 745
2012-07-31 0 10 0 17 2 890
Juin 2012 39 984 10 33 88 620
Mai 2012 22 703 5 26 77 701
Avril 2012 33 714 4 33 95 151
Mars 2012 35 977 5 48 160 160
Février 2012 34 704 5 33 117 877
Janvier 2012 44 958 1 30 111 249
* 2011 822 21 877 118 48 1 861 895
Décembre 2011 68 1 315 7 36 141 929
2011-12-01 0 46 0 28 3 436
2011-12-02 2 46 0 29 5 093
2011-12-03 3 35 0 24 3 173
2011-12-04 5 39 0 26 6 734
2011-12-05 5 109 0 36 4 968
2011-12-06 3 65 0 25 7 602
2011-12-07 4 93 1 28 6 025
2011-12-08 2 76 0 22 4 333
2011-12-09 1 94 0 29 6 392
2011-12-10 5 39 1 25 5 955
2011-12-11 3 49 1 27 5 545
2011-12-12 4 48 0 23 3 344
2011-12-13 3 64 0 28 6 227
2011-12-14 1 28 0 21 2 931
2011-12-15 4 66 1 31 4 951
2011-12-16 3 30 0 28 3 649
2011-12-17 1 29 0 19 4 090
2011-12-18 3 76 1 25 6 571
2011-12-19 5 67 2 23 5 351
2011-12-20 5 57 0 27 5 091
2011-12-21 0 12 0 22 5 526
2011-12-22 0 4 0 25 2 840
2011-12-23 1 8 0 18 3 720
2011-12-24 1 19 0 23 5 013
2011-12-25 1 26 0 17 2 000
2011-12-26 0 22 0 14 3 519
2011-12-27 2 20 0 25 3 302
2011-12-28 0 13 0 24 4 326
2011-12-29 1 16 0 20 3 816
2011-12-30 0 11 0 19 4 054
2011-12-31 0 8 0 28 2 352
Novembre 2011 94 1 539 4 36 150 015
Octobre 2011 81 1 597 13 41 169 207
Septembre 2011 96 1 991 19 24 158 540
Août 2011 68 1 372 16 48 135 201
Juillet 2011 57 1 156 10 30 112 626
2011-07-01 2 18 0 21 5 455
2011-07-02 5 34 1 13 3 807
2011-07-03 0 47 1 29 3 624
2011-07-04 3 75 1 23 5 753
2011-07-05 1 54 1 17 5 269
2011-07-06 1 25 0 17 4 105
2011-07-07 0 25 0 30 3 217
2011-07-08 3 74 0 17 4 521
2011-07-09 8 29 1 18 2 897
2011-07-10 1 54 0 21 5 965
2011-07-11 3 38 2 18 4 473
2011-07-12 2 66 0 14 3 417
2011-07-13 5 73 0 19 3 850
2011-07-14 0 38 0 15 3 112
2011-07-15 0 29 0 17 2 768
2011-07-16 1 17 0 21 4 404
2011-07-17 0 18 0 15 4 901
2011-07-18 1 25 0 18 2 740
2011-07-19 1 15 0 14 2 640
2011-07-20 1 48 0 20 3 211
2011-07-21 2 24 1 15 2 768
2011-07-22 2 46 0 17 3 321
2011-07-23 1 24 1 12 2 352
2011-07-24 8 31 0 15 2 544
2011-07-25 3 56 0 19 3 247
2011-07-26 1 31 1 12 3 398
2011-07-27 1 35 0 19 3 127
2011-07-28 0 28 0 24 3 297
2011-07-29 0 28 0 16 2 641
2011-07-30 0 12 0 17 2 551
2011-07-31 1 39 0 17 3 251
Juin 2011 40 1 214 6 31 149 115
Mai 2011 64 1 997 8 39 181 997
Avril 2011 46 1 637 9 38 176 986
Mars 2011 54 2 388 6 31 211 307
Février 2011 59 2 656 5 46 128 248
Janvier 2011 95 3 015 15 44 146 724
* 2010 615 23 079 70 91 1 409 620
Décembre 2010 54 2 635 5 43 199 984
2010-12-01 4 200 0 33 5 797
2010-12-02 2 80 0 27 4 428
2010-12-03 0 92 0 23 3 768
2010-12-04 1 50 1 19 2 892
2010-12-05 1 52 0 26 3 390
2010-12-06 0 92 0 29 3 863
2010-12-07 1 113 0 34 4 176
2010-12-08 2 59 0 34 4 663
2010-12-09 1 112 1 30 4 738
2010-12-10 0 81 0 26 4 475
2010-12-11 2 57 0 29 3 894
2010-12-12 2 51 0 42 3 962
2010-12-13 3 63 0 32 4 381
2010-12-14 2 89 0 32 7 458
2010-12-15 2 146 0 32 8 138
2010-12-16 1 120 0 33 13 324
2010-12-17 2 134 0 43 25 752
2010-12-18 1 65 0 17 12 634
2010-12-19 3 59 0 21 14 562
2010-12-20 4 92 1 26 8 417
2010-12-21 1 83 1 24 6 202
2010-12-22 4 109 0 34 8 319
2010-12-23 2 97 0 31 4 509
2010-12-24 0 19 0 17 4 671
2010-12-25 2 33 0 33 4 728
2010-12-26 2 42 0 31 4 717
2010-12-27 3 132 1 41 5 593
2010-12-28 1 78 0 43 4 517
2010-12-29 2 117 0 31 4 767
2010-12-30 2 87 0 24 4 387
2010-12-31 1 31 0 24 2 862
Novembre 2010 59 2 475 6 49 127 779
Octobre 2010 56 2 811 15 58 134 942
Septembre 2010 53 1 528 8 29 95 249
2010-09-01 2 64 1 15 3 537
2010-09-02 2 76 0 14 3 989
2010-09-03 3 85 0 19 3 885
2010-09-04 1 38 0 20 3 616
2010-09-05 1 48 0 26 5 204
2010-09-06 1 76 0 24 4 914
2010-09-07 0 30 0 17 2 733
2010-09-08 4 80 1 15 3 386
2010-09-09 7 72 0 17 2 897
2010-09-10 1 40 0 21 3 001
2010-09-11 1 30 1 19 2 447
2010-09-12 1 38 0 14 2 426
2010-09-13 1 35 1 17 3 257
2010-09-14 2 49 0 15 2 984
2010-09-15 1 33 0 19 2 355
2010-09-16 0 16 0 15 2 237
2010-09-17 2 27 0 14 2 374
2010-09-18 0 12 0 11 2 345
2010-09-19 1 18 0 17 2 430
2010-09-20 6 97 0 20 3 524
2010-09-21 4 72 2 19 3 395
2010-09-22 3 66 0 29 3 745
2010-09-23 1 45 0 17 3 086
2010-09-24 0 27 0 11 2 457
2010-09-25 3 45 0 17 2 727
2010-09-26 1 68 0 22 3 215
2010-09-27 0 62 1 15 2 961
2010-09-28 3 71 0 17 3 530
2010-09-29 1 56 1 21 4 026
2010-09-30 0 52 0 12 2 566
Août 2010 32 1 287 6 33 89 617
Juillet 2010 34 1 637 5 32 97 290
2010-07-01 1 30 0 21 3 321
2010-07-02 1 52 1 16 3 049
2010-07-03 1 37 0 16 2 560
2010-07-04 0 16 0 13 2 269
2010-07-05 4 85 0 26 4 056
2010-07-06 0 91 0 21 4 081
2010-07-07 1 121 1 21 4 639
2010-07-08 1 73 0 24 3 929
2010-07-09 1 79 0 24 3 726
2010-07-10 0 27 0 17 2 693
2010-07-11 1 29 0 17 2 442
2010-07-12 0 62 0 32 4 813
2010-07-13 2 51 0 17 2 918
2010-07-14 1 36 0 21 3 013
2010-07-15 0 52 0 19 3 510
2010-07-16 1 70 0 16 3 362
2010-07-17 1 24 0 13 2 507
2010-07-18 4 28 0 14 2 203
2010-07-19 2 62 0 17 3 256
2010-07-20 0 28 0 22 2 386
2010-07-21 0 42 0 21 2 918
2010-07-22 3 41 2 28 2 834
2010-07-23 1 66 0 16 3 158
2010-07-24 0 49 1 24 2 730
2010-07-25 0 44 0 20 2 856
2010-07-26 1 74 0 20 3 201
2010-07-27 0 44 0 18 3 066
2010-07-28 6 60 0 24 2 949
2010-07-29 0 55 0 19 2 833
2010-07-30 0 72 0 22 3 484
2010-07-31 1 37 0 20 2 528
Juin 2010 46 2 137 3 28 109 648
Mai 2010 50 1 497 6 28 99 050
Avril 2010 45 1 888 3 26 102 219
Mars 2010 53 1 534 2 46 118 201
Février 2010 65 1 574 4 91 117 274
Janvier 2010 68 2 076 7 43 118 367
2010-01-01 1 46 0 20 3 913
2010-01-02 4 31 1 32 3 858
2010-01-03 2 36 0 28 3 215
2010-01-04 4 63 0 32 3 563
2010-01-05 6 83 1 14 3 833
2010-01-06 1 75 0 29 4 333
2010-01-07 1 69 0 28 3 556
2010-01-08 3 91 0 31 3 667
2010-01-09 2 63 0 16 6 182
2010-01-10 3 84 0 26 5 259
2010-01-11 0 69 0 34 3 960
2010-01-12 2 49 1 38 3 467
2010-01-13 3 71 0 43 3 364
2010-01-14 6 94 0 22 3 885
2010-01-15 1 39 0 35 3 006
2010-01-16 4 72 0 29 3 257
2010-01-17 3 64 0 21 3 633
2010-01-18 1 108 1 25 4 914
2010-01-19 0 43 0 32 4 202
2010-01-20 2 67 0 41 4 556
2010-01-21 1 91 1 31 3 743
2010-01-22 2 86 0 34 3 744
2010-01-23 2 36 1 19 2 584
2010-01-24 0 37 0 21 3 027
2010-01-25 2 126 1 37 4 743
2010-01-26 2 71 0 34 3 580
2010-01-27 1 58 0 20 3 145
2010-01-28 1 65 0 13 3 955
2010-01-29 3 81 0 17 3 847
2010-01-30 2 48 0 14 2 989
2010-01-31 3 60 0 14 3 387
* 2009 752 28 223 96 159 970 278
Décembre 2009 39 2 001 5 54 122 418
2009-12-01 2 99 0 21 3 827
2009-12-02 0 91 0 20 3 658
2009-12-03 3 128 0 22 4 078
2009-12-04 2 111 0 23 3 795
2009-12-05 1 47 1 17 2 228
2009-12-06 2 48 0 17 3 135
2009-12-07 1 116 1 27 3 862
2009-12-08 1 58 0 19 4 184
2009-12-09 1 94 0 33 3 923
2009-12-10 0 72 0 38 3 566
2009-12-11 1 46 0 25 2 665
2009-12-12 1 38 0 29 2 266
2009-12-13 0 42 0 28 1 478
2009-12-14 2 86 0 26 2 993
2009-12-15 2 128 0 32 3 520
2009-12-16 3 89 0 25 3 587
2009-12-17 2 106 0 31 3 888
2009-12-18 0 129 0 54 6 524
2009-12-19 0 43 0 14 2 643
2009-12-20 1 41 0 28 7 360
2009-12-21 2 76 0 28 8 634
2009-12-22 5 114 1 31 4 041
2009-12-23 0 33 0 39 3 096
2009-12-24 1 34 0 13 2 752
2009-12-25 0 7 0 32 3 780
2009-12-26 2 26 0 21 2 640
2009-12-27 0 33 1 10 2 292
2009-12-28 2 14 1 27 10 310
2009-12-29 0 18 0 15 5 672
2009-12-30 1 16 0 14 2 982
2009-12-31 1 18 0 11 3 039
Novembre 2009 59 3 138 6 38 117 432
Octobre 2009 67 3 218 11 18 122 232
Septembre 2009 73 2 730 14 159 92 082
Août 2009 47 1 405 8 15 61 919
2009-08-01 2 39 0 13 1 336
2009-08-02 0 69 0 11 2 391
2009-08-03 1 44 0 11 1 874
2009-08-04 3 65 0 11 2 245
2009-08-05 2 48 0 10 1 649
2009-08-06 0 16 0 11 1 298
2009-08-07 0 47 1 8 1 823
2009-08-08 3 37 1 9 1 618
2009-08-09 0 29 0 7 1 656
2009-08-10 1 38 0 10 1 645
2009-08-11 0 24 0 9 1 552
2009-08-12 1 31 0 10 1 570
2009-08-13 0 11 0 10 1 503
2009-08-14 1 28 1 14 1 375
2009-08-15 1 28 0 8 1 978
2009-08-16 1 18 0 8 1 403
2009-08-17 2 52 0 11 2 044
2009-08-18 1 25 0 8 1 776
2009-08-19 0 29 0 15 3 027
2009-08-20 1 26 0 9 2 534
2009-08-21 1 30 0 10 1 626
2009-08-22 0 30 0 8 1 511
2009-08-23 3 54 0 10 2 054
2009-08-24 1 58 0 9 2 545
2009-08-25 0 37 0 15 1 903
2009-08-26 4 41 1 10 1 582
2009-08-27 4 160 2 10 3 765
2009-08-28 5 90 2 10 2 501
2009-08-29 1 72 0 14 2 703
2009-08-30 2 43 0 10 2 157
2009-08-31 6 86 0 12 3 275
Juillet 2009 68 1 737 11 21 67 267
Juin 2009 63 2 759 4 37 72 789
Mai 2009 46 2 166 6 16 66 386
2009-05-01 1 129 0 10 2 835
2009-05-02 1 42 1 14 1 469
2009-05-03 0 68 0 13 1 801
2009-05-04 3 101 1 16 2 844
2009-05-05 2 74 1 13 2 433
2009-05-06 4 156 0 15 3 705
2009-05-07 1 47 0 12 1 946
2009-05-08 1 54 1 9 1 538
2009-05-09 2 46 0 10 1 306
2009-05-10 2 58 0 12 1 788
2009-05-11 0 77 0 13 2 263
2009-05-12 1 49 1 11 2 134
2009-05-13 0 31 0 11 1 993
2009-05-14 0 65 0 12 2 003
2009-05-15 0 75 0 11 2 324
2009-05-16 2 36 0 8 1 545
2009-05-17 1 52 1 13 2 284
2009-05-18 0 40 0 11 2 729
2009-05-19 1 60 0 11 2 402
2009-05-20 0 90 0 10 2 220
2009-05-21 5 54 0 10 1 843
2009-05-22 0 36 0 10 1 520
2009-05-23 0 38 0 8 1 804
2009-05-24 5 74 0 10 2 169
2009-05-25 6 80 0 13 2 515
2009-05-26 1 105 0 13 2 637
2009-05-27 4 128 0 14 3 088
2009-05-28 0 85 0 9 1 806
2009-05-29 0 82 0 11 2 137
2009-05-30 0 48 0 8 1 394
2009-05-31 3 86 0 13 1 911
Avril 2009 101 2 850 6 16 73 303
Mars 2009 80 3 538 7 17 83 610
Février 2009 57 1 586 6 16 50 521
Janvier 2009 52 1 095 12 10 40 319
* 2008 334 4 655 56 26 234 055
Décembre 2008 36 663 7 12 28 104
Novembre 2008 51 1 090 9 10 35 948
2008-11-01 3 21 0 5 641
2008-11-02 1 11 0 4 608
2008-11-03 3 25 0 6 607
2008-11-04 1 10 0 7 593
2008-11-05 1 39 0 6 862
2008-11-06 1 30 0 7 800
2008-11-07 0 24 1 6 988
2008-11-08 1 21 0 6 723
2008-11-09 4 34 1 9 1 318
2008-11-10 0 37 0 6 898
2008-11-11 1 23 0 6 769
2008-11-12 0 32 0 8 965
2008-11-13 1 46 0 7 1 206
2008-11-14 7 80 2 10 1 771
2008-11-15 2 24 2 8 1 573
2008-11-16 5 105 1 9 2 149
2008-11-17 2 78 0 8 1 696
2008-11-18 3 99 0 9 1 993
2008-11-19 0 49 0 7 2 844
2008-11-20 1 13 0 9 760
2008-11-21 5 51 0 7 1 231
2008-11-22 2 32 0 9 1 665
2008-11-23 0 11 0 8 2 071
2008-11-24 0 26 0 6 2 046
2008-11-25 3 42 0 6 1 092
2008-11-26 0 40 0 8 1 012
2008-11-27 0 22 0 5 951
2008-11-28 0 22 1 8 705
2008-11-29 2 23 0 5 721
2008-11-30 2 20 1 5 690
Octobre 2008 50 609 5 10 26 582
Septembre 2008 40 619 5 10 24 365
Août 2008 28 252 6 9 21 916
2008-08-01 1 3 0 6 643
2008-08-02 1 7 1 4 575
2008-08-03 0 1 0 3 335
2008-08-04 1 9 0 8 348
2008-08-05 0 1 0 2 341
2008-08-06 1 6 0 5 362
2008-08-07 2 10 0 5 392
2008-08-08 0 5 0 3 492
2008-08-09 0 9 0 4 352
2008-08-10 0 5 0 4 379
2008-08-11 3 9 1 5 574
2008-08-12 1 10 0 9 785
2008-08-13 0 5 0 3 614
2008-08-14 0 6 0 3 300
2008-08-15 0 7 0 7 1 149
2008-08-16 0 5 0 5 2 200
2008-08-17 1 2 1 3 676
2008-08-18 2 12 0 6 505
2008-08-19 1 10 0 6 559
2008-08-20 0 16 0 4 441
2008-08-21 0 7 1 5 515
2008-08-22 6 27 0 6 789
2008-08-23 1 4 0 7 566
2008-08-24 1 3 0 5 765
2008-08-25 1 14 0 6 707
2008-08-26 0 7 0 8 778
2008-08-27 3 14 1 5 847
2008-08-28 0 6 0 5 701
2008-08-29 0 10 0 8 1 349
2008-08-30 0 2 0 5 1 714
2008-08-31 2 20 1 9 1 163
Juillet 2008 20 256 5 7 16 733
Juin 2008 17 363 6 26 18 903
Mai 2008 17 180 2 10 13 320
Avril 2008 16 146 3 8 16 063
Mars 2008 18 158 1 9 12 835
Février 2008 19 155 2 9 9 679
Janvier 2008 22 164 5 7 9 607
* 2007 276 2 246 55 9 102 999
Décembre 2007 21 167 5 8 17 081
Novembre 2007 20 168 3 6 8 467
2007-11-01 0 5 1 2 280
2007-11-02 1 6 0 4 251
2007-11-03 2 8 0 4 329
2007-11-04 1 2 0 5 308
2007-11-05 2 15 0 0 391
2007-11-06 1 2 0 6 298
2007-11-07 1 5 0 0 259
2007-11-08 0 5 0 4 263
2007-11-09 0 7 0 4 188
2007-11-10 0 4 0 2 164
2007-11-11 0 2 0 0 198
2007-11-12 0 6 0 4 191
2007-11-13 0 0 0 0 201
2007-11-14 1 5 0 0 202
2007-11-15 1 2 0 3 263
2007-11-16 1 6 0 4 383
2007-11-17 0 4 0 3 239
2007-11-18 0 4 1 4 290
2007-11-19 0 6 0 0 190
2007-11-20 0 6 0 3 271
2007-11-21 1 7 0 4 287
2007-11-22 2 11 0 4 294
2007-11-23 0 8 1 5 508
2007-11-24 2 6 0 3 376
2007-11-25 0 3 0 2 239
2007-11-26 1 6 0 3 283
2007-11-27 0 5 0 5 349
2007-11-28 1 2 0 4 242
2007-11-29 1 6 0 4 278
2007-11-30 1 14 0 0 452
Octobre 2007 21 147 4 5 8 193
Septembre 2007 22 183 4 9 9 896
Août 2007 23 226 2 6 9 096
Juillet 2007 18 127 1 4 10 165
Juin 2007 25 309 2 6 13 196
Mai 2007 30 315 8 7 11 830
Avril 2007 44 428 13 9 13 382
Mars 2007 52 176 13 4 1 693